createdAt,value
2023-04-08T00:00:48.220Z,96828.69
2023-04-08T00:03:16.731Z,96826.91
2023-04-08T00:05:46.372Z,96829.91
2023-04-08T00:08:14.610Z,96828.69
2023-04-08T00:10:42.870Z,96830.47
2023-04-08T00:13:11.249Z,96827.44
2023-04-08T00:15:39.352Z,96832.16
2023-04-08T00:18:08.569Z,96830.94
2023-04-08T00:20:36.696Z,96838.19
2023-04-08T00:23:06.269Z,96835.34
2023-04-08T00:25:34.430Z,96839.38
2023-04-08T00:28:02.522Z,96834.94
2023-04-08T00:30:32.107Z,96835.97
2023-04-08T00:33:00.310Z,96840.59
2023-04-08T00:35:28.620Z,96834.13
2023-04-08T00:37:56.830Z,96835.75
2023-04-08T00:40:26.350Z,96833.72
2023-04-08T00:42:54.881Z,96831.91
2023-04-08T00:45:23.303Z,96831.09
2023-04-08T00:47:52.692Z,96832.72
2023-04-08T00:50:21.430Z,96836.56
2023-04-08T00:52:49.748Z,96836.38
2023-04-08T00:55:17.837Z,96836.75
2023-04-08T00:57:47.650Z,96840.59
2023-04-08T01:00:17.435Z,96838.56
2023-04-08T01:02:54.115Z,96846.06
2023-04-08T01:05:32.703Z,96848.50
2023-04-08T01:08:03.031Z,96842.59
2023-04-08T01:10:35.468Z,96840.59
2023-04-08T01:13:10.163Z,96847.06
2023-04-08T01:15:41.279Z,96839.56
2023-04-08T01:18:14.447Z,96845.41
2023-04-08T01:20:43.803Z,96839.56
2023-04-08T01:23:24.107Z,96846.44
2023-04-08T01:25:54.678Z,96847.06
2023-04-08T01:28:28.023Z,96844.22
2023-04-08T01:30:58.729Z,96843.81
2023-04-08T01:33:29.849Z,96847.06
2023-04-08T01:36:00.079Z,96838.56
2023-04-08T01:38:29.178Z,96839.38
2023-04-08T01:40:58.908Z,96840.78
2023-04-08T01:43:28.114Z,96842.41
2023-04-08T01:45:58.374Z,96844.63
2023-04-08T01:48:27.481Z,96835.53
2023-04-08T01:50:56.723Z,96838.94
2023-04-08T01:53:25.422Z,96836.31
2023-04-08T01:56:02.631Z,96839.75
2023-04-08T01:58:37.446Z,96832.91
2023-04-08T02:01:07.430Z,96839.19
2023-04-08T02:03:36.818Z,96836.09
2023-04-08T02:06:05.444Z,96838.53
2023-04-08T02:08:36.604Z,96840.16
2023-04-08T02:11:06.219Z,96838.16
2023-04-08T02:13:34.819Z,96848.66
2023-04-08T02:16:10.597Z,96843.81
2023-04-08T02:18:43.565Z,96838.75
2023-04-08T02:21:16.934Z,96832.84
2023-04-08T02:23:51.274Z,96837.31
2023-04-08T02:26:22.985Z,96831.66
2023-04-08T02:28:52.075Z,96835.72
2023-04-08T02:31:24.793Z,96839.13
2023-04-08T02:33:53.710Z,96835.66
2023-04-08T02:36:23.198Z,96833.66
2023-04-08T02:38:52.402Z,96835.66
2023-04-08T02:41:22.123Z,96835.88
2023-04-08T02:43:55.434Z,96842.75
2023-04-08T02:46:23.625Z,96847.00
2023-04-08T02:48:52.347Z,96844.16
2023-04-08T02:51:20.541Z,96838.47
2023-04-08T02:53:48.700Z,96842.94
2023-04-08T02:56:16.743Z,96844.34
2023-04-08T02:58:46.557Z,96837.03
2023-04-08T03:01:14.697Z,96845.31
2023-04-08T03:03:42.920Z,96841.09
2023-04-08T03:06:11.430Z,96842.31
2023-04-08T03:08:39.487Z,96842.94
2023-04-08T03:11:07.514Z,96836.88
2023-04-08T03:13:35.657Z,96842.50
2023-04-08T03:16:05.479Z,96845.38
2023-04-08T03:18:33.547Z,96851.41
2023-04-08T03:21:03.174Z,96843.72
2023-04-08T03:23:31.328Z,96837.66
2023-04-08T03:25:59.381Z,96838.06
2023-04-08T03:28:27.537Z,96837.03
2023-04-08T03:30:55.788Z,96843.53
2023-04-08T03:33:25.896Z,96836.66
2023-04-08T03:35:55.267Z,96842.31
2023-04-08T03:38:24.104Z,96840.69
2023-04-08T03:40:52.115Z,96846.34
2023-04-08T03:43:21.907Z,96840.91
2023-04-08T03:45:50.059Z,96842.50
2023-04-08T03:48:18.213Z,96841.34
2023-04-08T03:50:47.558Z,96846.59
2023-04-08T03:53:15.650Z,96839.69
2023-04-08T03:55:43.628Z,96848.38
2023-04-08T03:58:11.751Z,96845.94
2023-04-08T04:00:39.894Z,96837.03
2023-04-08T04:03:09.228Z,96842.50
2023-04-08T04:05:37.838Z,96845.09
2023-04-08T04:08:09.374Z,96839.63
2023-04-08T04:10:37.645Z,96842.91
2023-04-08T04:13:05.746Z,96843.28
2023-04-08T04:15:33.893Z,96848.94
2023-04-08T04:18:01.940Z,96846.13
2023-04-08T04:20:30.743Z,96852.56
2023-04-08T04:22:58.812Z,96843.69
2023-04-08T04:25:28.159Z,96847.72
2023-04-08T04:27:56.261Z,96854.03
2023-04-08T04:30:24.929Z,96850.16
2023-04-08T04:32:53.121Z,96857.84
2023-04-08T04:35:21.302Z,96861.03
2023-04-08T04:37:51.791Z,96854.16
2023-04-08T04:40:20.228Z,96847.06
2023-04-08T04:42:49.791Z,96845.28
2023-04-08T04:45:17.978Z,96852.34
2023-04-08T04:47:46.213Z,96851.75
2023-04-08T04:50:14.238Z,96857.41
2023-04-08T04:52:42.361Z,96858.22
2023-04-08T04:55:11.710Z,96858.41
2023-04-08T04:57:39.695Z,96858.22
2023-04-08T05:00:11.180Z,96865.28
2023-04-08T05:02:39.471Z,96862.25
2023-04-08T05:05:08.545Z,96869.94
2023-04-08T05:07:37.751Z,96867.34
2023-04-08T05:10:06.924Z,96867.53
2023-04-08T05:12:34.968Z,96875.03
2023-04-08T05:15:03.252Z,96874.81
2023-04-08T05:17:32.634Z,96873.59
2023-04-08T05:20:00.821Z,96879.84
2023-04-08T05:22:28.981Z,96882.91
2023-04-08T05:24:57.118Z,96886.56
2023-04-08T05:27:25.181Z,96887.53
2023-04-08T05:29:53.325Z,96892.97
2023-04-08T05:32:21.387Z,96894.81
2023-04-08T05:34:50.911Z,96891.38
2023-04-08T05:37:18.942Z,96885.91
2023-04-08T05:39:47.015Z,96884.69
2023-04-08T05:42:15.149Z,96890.56
2023-04-08T05:44:43.950Z,96894.63
2023-04-08T05:47:12.191Z,96898.66
2023-04-08T05:49:40.316Z,96902.06
2023-04-08T05:52:09.811Z,96902.88
2023-04-08T05:54:37.970Z,96900.06
2023-04-08T05:57:06.116Z,96901.91
2023-04-08T05:59:34.210Z,96901.72
2023-04-08T06:02:02.487Z,96911.66
2023-04-08T06:04:31.008Z,96912.03
2023-04-08T06:07:02.433Z,96919.31
2023-04-08T06:09:31.815Z,96916.88
2023-04-08T06:11:59.860Z,96921.53
2023-04-08T06:14:27.977Z,96923.78
2023-04-08T06:16:57.335Z,96925.44
2023-04-08T06:19:25.740Z,96923.59
2023-04-08T06:21:58.695Z,96926.25
2023-04-08T06:24:27.756Z,96929.06
2023-04-08T06:26:57.702Z,96926.25
2023-04-08T06:29:25.744Z,96935.13
2023-04-08T06:31:53.883Z,96936.16
2023-04-08T06:34:21.872Z,96932.69
2023-04-08T06:36:50.229Z,96929.88
2023-04-08T06:39:19.385Z,96935.16
2023-04-08T06:41:47.518Z,96942.66
2023-04-08T06:44:30.877Z,96947.47
2023-04-08T06:46:59.086Z,96947.72
2023-04-08T06:49:27.920Z,96945.69
2023-04-08T06:51:56.165Z,96947.19
2023-04-08T06:54:24.336Z,96943.72
2023-04-08T06:56:52.304Z,96944.13
2023-04-08T06:59:20.368Z,96946.47
2023-04-08T07:01:49.875Z,96939.41
2023-04-08T07:04:18.140Z,96939.03
2023-04-08T07:06:46.332Z,96945.47
2023-04-08T07:09:14.320Z,96946.66
2023-04-08T07:11:42.371Z,96953.06
2023-04-08T07:14:10.546Z,96948.84
2023-04-08T07:16:38.726Z,96954.38
2023-04-08T07:19:08.311Z,96950.69
2023-04-08T07:21:36.620Z,96954.75
2023-04-08T07:24:05.061Z,96963.00
2023-04-08T07:26:33.303Z,96961.22
2023-04-08T07:29:01.411Z,96971.41
2023-04-08T07:31:29.576Z,96968.16
2023-04-08T07:33:57.916Z,96971.59
2023-04-08T07:36:28.180Z,96974.22
2023-04-08T07:38:56.320Z,96973.22
2023-04-08T07:41:24.460Z,96981.13
2023-04-08T07:43:52.568Z,96979.88
2023-04-08T07:46:21.221Z,96981.69
2023-04-08T07:48:49.584Z,96987.47
2023-04-08T07:51:18.039Z,96979.44
2023-04-08T07:53:50.343Z,96980.22
2023-04-08T07:56:19.173Z,96977.06
2023-04-08T07:58:48.741Z,96982.91
2023-04-08T08:01:20.055Z,96985.97
2023-04-08T08:03:48.953Z,96987.22
2023-04-08T08:06:17.725Z,96986.66
2023-04-08T08:08:45.896Z,96989.28
2023-04-08T08:11:15.491Z,96987.69
2023-04-08T08:13:43.677Z,96993.13
2023-04-08T08:16:36.547Z,96986.84
2023-04-08T08:19:28.961Z,96991.66
2023-04-08T08:21:57.671Z,96989.69
2023-04-08T08:24:25.928Z,97006.09
2023-04-08T08:26:55.562Z,97005.50
2023-04-08T08:29:23.808Z,96997.00
2023-04-08T08:31:52.176Z,96999.63
2023-04-08T08:34:20.345Z,97002.06
2023-04-08T08:36:48.400Z,97006.94
2023-04-08T08:39:16.506Z,97005.13
2023-04-08T08:41:44.594Z,97016.06
2023-04-08T08:44:14.494Z,97015.69
2023-04-08T08:46:45.832Z,97025.38
2023-04-08T08:49:14.066Z,97022.94
2023-04-08T08:51:43.002Z,97020.94
2023-04-08T08:54:11.290Z,97016.47
2023-04-08T08:56:39.418Z,97021.31
2023-04-08T08:59:07.908Z,97022.09
2023-04-08T09:01:40.757Z,97030.19
2023-04-08T09:04:16.907Z,97021.09
2023-04-08T09:06:47.030Z,97021.34
2023-04-08T09:09:15.466Z,97020.56
2023-04-08T09:11:46.402Z,97024.38
2023-04-08T09:14:22.544Z,97018.72
2023-04-08T09:16:53.822Z,97031.28
2023-04-08T09:19:22.063Z,97017.72
2023-04-08T09:22:08.289Z,97022.56
2023-04-08T09:24:38.014Z,97026.22
2023-04-08T09:27:06.734Z,97027.84
2023-04-08T09:29:38.137Z,97021.34
2023-04-08T09:32:09.097Z,97031.09
2023-04-08T09:34:37.552Z,97026.22
2023-04-08T09:37:07.125Z,97025.59
2023-04-08T09:39:35.830Z,97023.56
2023-04-08T09:42:12.727Z,97029.66
2023-04-08T09:44:42.831Z,97031.06
2023-04-08T09:47:23.050Z,97031.84
2023-04-08T09:49:56.771Z,97035.09
2023-04-08T09:52:32.515Z,97031.81
2023-04-08T09:55:04.847Z,97032.28
2023-04-08T09:57:45.032Z,97031.41
2023-04-08T10:00:16.180Z,97026.41
2023-04-08T10:02:56.276Z,97026.81
2023-04-08T10:05:26.068Z,97029.41
2023-04-08T10:07:56.752Z,97022.16
2023-04-08T10:10:26.143Z,97037.97
2023-04-08T10:12:54.548Z,97029.38
2023-04-08T10:15:27.487Z,97030.16
2023-04-08T10:18:19.150Z,97032.00
2023-04-08T10:20:49.055Z,97035.06
2023-04-08T10:23:18.861Z,97040.56
2023-04-08T10:25:47.724Z,97028.75
2023-04-08T10:28:27.144Z,97022.81
2023-04-08T10:30:57.461Z,97025.03
2023-04-08T10:33:36.138Z,97018.75
2023-04-08T10:36:15.322Z,97026.03
2023-04-08T10:38:43.884Z,97016.28
2023-04-08T10:41:14.025Z,97023.56
2023-04-08T10:43:42.500Z,97024.59
2023-04-08T10:46:12.460Z,97023.50
2023-04-08T10:48:41.899Z,97023.25
2023-04-08T10:51:09.990Z,97023.22
2023-04-08T10:53:40.281Z,97024.63
2023-04-08T10:56:12.817Z,97022.38
2023-04-08T10:58:50.364Z,97022.34
2023-04-08T11:01:19.735Z,97023.00
2023-04-08T11:03:50.283Z,97024.44
2023-04-08T11:06:19.446Z,97027.66
2023-04-08T11:08:48.164Z,97015.66
2023-04-08T11:11:16.336Z,97022.59
2023-04-08T11:13:53.528Z,97018.13
2023-04-08T11:16:23.484Z,97016.09
2023-04-08T11:18:54.415Z,97018.34
2023-04-08T11:21:27.159Z,97025.28
2023-04-08T11:23:55.839Z,97014.31
2023-04-08T11:26:24.500Z,97017.53
2023-04-08T11:28:53.115Z,97015.31
2023-04-08T11:31:24.829Z,97020.19
2023-04-08T11:33:56.747Z,97025.88
2023-04-08T11:36:25.955Z,97021.34
2023-04-08T11:38:56.208Z,97018.13
2023-04-08T11:41:24.233Z,97022.00
2023-04-08T11:43:57.526Z,97022.03
2023-04-08T11:46:25.964Z,97020.81
2023-04-08T11:49:04.579Z,97011.66
2023-04-08T11:51:34.433Z,97020.66
2023-04-08T11:54:05.303Z,97013.94
2023-04-08T11:56:45.703Z,97010.88
2023-04-08T11:59:13.705Z,97015.72
2023-04-08T12:01:43.213Z,97011.66
2023-04-08T12:04:13.180Z,97011.47
2023-04-08T12:06:43.492Z,97014.78
2023-04-08T12:09:11.585Z,97019.91
2023-04-08T12:11:39.861Z,97023.31
2023-04-08T12:14:07.923Z,97019.41
2023-04-08T12:16:36.295Z,97018.19
2023-04-08T12:19:04.586Z,97023.69
2023-04-08T12:21:34.545Z,97018.59
2023-04-08T12:24:02.646Z,97022.88
2023-04-08T12:26:30.752Z,97029.38
2023-04-08T12:28:58.741Z,97031.59
2023-04-08T12:31:27.753Z,97028.16
2023-04-08T12:33:55.895Z,97027.34
2023-04-08T12:36:23.996Z,97036.66
2023-04-08T12:38:53.461Z,97024.91
2023-04-08T12:41:21.713Z,97027.16
2023-04-08T12:43:49.800Z,97025.34
2023-04-08T12:46:17.819Z,97029.25
2023-04-08T12:48:47.463Z,97025.78
2023-04-08T12:51:15.681Z,97022.69
2023-04-08T12:53:43.645Z,97028.19
2023-04-08T12:56:13.111Z,97029.66
2023-04-08T12:58:41.326Z,97027.78
2023-04-08T13:01:09.431Z,97026.00
2023-04-08T13:03:37.574Z,97026.63
2023-04-08T13:06:05.922Z,97024.19
2023-04-08T13:08:33.924Z,97025.19
2023-04-08T13:11:02.051Z,97023.56
2023-04-08T13:13:31.439Z,97019.72
2023-04-08T13:15:59.531Z,97021.75
2023-04-08T13:18:27.704Z,97010.19
2023-04-08T13:20:55.776Z,97011.00
2023-04-08T13:23:23.778Z,97019.31
2023-04-08T13:25:51.927Z,97019.94
2023-04-08T13:28:20.243Z,97017.06
2023-04-08T13:30:49.802Z,97014.84
2023-04-08T13:33:18.203Z,97015.69
2023-04-08T13:35:46.301Z,97015.25
2023-04-08T13:38:14.313Z,97025.59
2023-04-08T13:40:42.473Z,97022.78
2023-04-08T13:43:10.463Z,97026.00
2023-04-08T13:45:38.791Z,97017.91
2023-04-08T13:48:08.644Z,97020.34
2023-04-08T13:50:36.821Z,97023.78
2023-04-08T13:53:04.825Z,97024.19
2023-04-08T13:55:32.917Z,97016.69
2023-04-08T13:58:01.589Z,97021.78
2023-04-08T14:00:31.202Z,97021.34
2023-04-08T14:02:59.717Z,97017.06
2023-04-08T14:05:29.103Z,97017.06
2023-04-08T14:07:57.171Z,97021.34
2023-04-08T14:10:25.353Z,97017.66
2023-04-08T14:12:54.276Z,97021.13
2023-04-08T14:15:22.352Z,97024.38
2023-04-08T14:17:50.434Z,97028.25
2023-04-08T14:20:18.538Z,97023.16
2023-04-08T14:22:47.975Z,97021.53
2023-04-08T14:25:16.325Z,97018.50
2023-04-08T14:27:57.192Z,97014.81
2023-04-08T14:30:27.644Z,97013.59
2023-04-08T14:32:55.921Z,97019.06
2023-04-08T14:35:24.150Z,97020.13
2023-04-08T14:37:53.610Z,97021.50
2023-04-08T14:40:21.928Z,97021.94
2023-04-08T14:42:50.683Z,97026.97
2023-04-08T14:45:18.982Z,97022.91
2023-04-08T14:47:47.081Z,97026.13
2023-04-08T14:50:16.025Z,97025.75
2023-04-08T14:52:45.372Z,97029.13
2023-04-08T14:55:15.516Z,97015.31
2023-04-08T14:57:43.641Z,97028.78
2023-04-08T15:00:13.504Z,97021.34
2023-04-08T15:02:41.953Z,97026.59
2023-04-08T15:05:11.472Z,97030.63
2023-04-08T15:07:39.545Z,97026.78
2023-04-08T15:10:09.217Z,97026.78
2023-04-08T15:12:38.693Z,97023.75
2023-04-08T15:15:08.586Z,97031.84
2023-04-08T15:17:36.626Z,97036.47
2023-04-08T15:20:05.800Z,97039.56
2023-04-08T15:22:33.899Z,97039.38
2023-04-08T15:25:02.188Z,97034.69
2023-04-08T15:27:30.612Z,97045.66
2023-04-08T15:30:00.329Z,97045.25
2023-04-08T15:32:28.368Z,97040.81
2023-04-08T15:34:56.482Z,97050.75
2023-04-08T15:37:24.894Z,97050.56
2023-04-08T15:39:53.708Z,97053.97
2023-04-08T15:42:22.029Z,97045.88
2023-04-08T15:44:50.397Z,97049.34
2023-04-08T15:47:20.078Z,97041.44
2023-04-08T15:49:48.778Z,97049.06
2023-04-08T15:52:17.447Z,97043.78
2023-04-08T15:54:46.117Z,97049.88
2023-04-08T15:57:16.263Z,97051.81
2023-04-08T15:59:44.658Z,97049.66
2023-04-08T16:02:13.024Z,97049.63
2023-04-08T16:04:42.766Z,97063.91
2023-04-08T16:07:11.048Z,97057.38
2023-04-08T16:09:39.300Z,97061.00
2023-04-08T16:12:07.471Z,97065.22
2023-04-08T16:14:35.717Z,97061.22
2023-04-08T16:17:03.935Z,97060.81
2023-04-08T16:19:32.300Z,97070.06
2023-04-08T16:22:01.617Z,97070.34
2023-04-08T16:24:29.657Z,97073.25
2023-04-08T16:26:57.722Z,97075.25
2023-04-08T16:29:26.116Z,97076.00
2023-04-08T16:31:55.167Z,97076.75
2023-04-08T16:34:23.457Z,97083.28
2023-04-08T16:36:51.877Z,97079.88
2023-04-08T16:39:21.340Z,97081.06
2023-04-08T16:41:49.368Z,97081.50
2023-04-08T16:44:17.495Z,97090.44
2023-04-08T16:46:45.548Z,97091.06
2023-04-08T16:49:15.560Z,97089.28
2023-04-08T16:51:44.893Z,97091.09
2023-04-08T16:54:12.844Z,97094.53
2023-04-08T16:56:45.457Z,97096.81
2023-04-08T17:03:36.377Z,97099.03
2023-04-08T17:06:09.978Z,97107.75
2023-04-08T17:08:38.878Z,97109.81
2023-04-08T17:11:10.969Z,97108.53
2023-04-08T17:13:43.656Z,97111.19
2023-04-08T17:16:14.393Z,97117.50
2023-04-08T17:18:43.382Z,97118.31
2023-04-08T17:21:13.986Z,97130.06
2023-04-08T17:23:59.286Z,97119.13
2023-04-08T17:26:28.251Z,97127.63
2023-04-08T17:28:59.441Z,97121.97
2023-04-08T17:31:28.455Z,97130.63
2023-04-08T17:33:57.371Z,97131.50
2023-04-08T17:36:26.495Z,97136.13
2023-04-08T17:38:56.482Z,97134.94
2023-04-08T17:41:39.064Z,97135.72
2023-04-08T17:44:12.586Z,97131.72
2023-04-08T17:46:41.713Z,97135.75
2023-04-08T17:49:12.808Z,97143.66
2023-04-08T17:51:43.878Z,97133.94
2023-04-08T17:54:14.505Z,97138.56
2023-04-08T17:56:44.909Z,97138.97
2023-04-08T17:59:16.069Z,97141.78
2023-04-08T18:01:45.383Z,97144.47
2023-04-08T18:04:18.778Z,97146.09
2023-04-08T18:06:48.699Z,97145.09
2023-04-08T18:09:17.500Z,97145.09
2023-04-08T18:11:47.319Z,97147.34
2023-04-08T18:14:17.826Z,97147.13
2023-04-08T18:16:46.942Z,97153.22
2023-04-08T18:19:15.654Z,97157.28
2023-04-08T18:21:46.029Z,97166.41
2023-04-08T18:24:14.894Z,97177.31
2023-04-08T18:26:43.953Z,97182.38
2023-04-08T18:29:14.417Z,97177.50
2023-04-08T18:31:45.241Z,97185.22
2023-04-08T18:34:14.105Z,97183.81
2023-04-08T18:36:43.038Z,97185.59
2023-04-08T18:39:12.692Z,97185.81
2023-04-08T18:41:41.077Z,97186.81
2023-04-08T18:44:10.991Z,97180.09
2023-04-08T18:46:52.750Z,97186.38
2023-04-08T18:49:21.200Z,97201.41
2023-04-08T18:52:01.319Z,97199.16
2023-04-08T18:54:32.989Z,97197.75
2023-04-08T18:57:01.618Z,97204.63
2023-04-08T18:59:33.287Z,97206.22
2023-04-08T19:02:03.382Z,97219.19
2023-04-08T19:04:33.405Z,97215.13
2023-04-08T19:07:03.660Z,97219.75
2023-04-08T19:09:32.617Z,97222.56
2023-04-08T19:12:02.264Z,97220.53
2023-04-08T19:14:34.376Z,97223.81
2023-04-08T19:17:04.874Z,97224.78
2023-04-08T19:19:33.259Z,97214.03
2023-04-08T19:22:05.942Z,97229.66
2023-04-08T19:24:34.943Z,97222.56
2023-04-08T19:27:04.233Z,97234.53
2023-04-08T19:29:35.420Z,97227.03
2023-04-08T19:32:06.127Z,97230.91
2023-04-08T19:34:39.698Z,97231.13
2023-04-08T19:37:08.631Z,97229.66
2023-04-08T19:39:37.572Z,97225.41
2023-04-08T19:42:06.763Z,97234.34
2023-04-08T19:44:36.169Z,97231.50
2023-04-08T19:47:06.909Z,97240.63
2023-04-08T19:49:35.797Z,97242.25
2023-04-08T19:52:05.169Z,97247.91
2023-04-08T19:54:34.725Z,97245.03
2023-04-08T19:57:05.629Z,97248.06
2023-04-08T19:59:37.080Z,97244.41
2023-04-08T20:02:08.100Z,97243.00
2023-04-08T20:04:36.763Z,97248.69
2023-04-08T20:07:05.737Z,97247.88
2023-04-08T20:09:36.932Z,97249.94
2023-04-08T20:12:06.596Z,97250.91
2023-04-08T20:14:40.623Z,97246.06
2023-04-08T20:17:11.657Z,97244.22
2023-04-08T20:19:40.546Z,97246.25
2023-04-08T20:22:09.419Z,97245.59
2023-04-08T20:24:38.961Z,97252.28
2023-04-08T20:27:07.190Z,97241.75
2023-04-08T20:29:36.003Z,97245.22
2023-04-08T20:32:05.865Z,97247.03
2023-04-08T20:34:36.689Z,97237.50
2023-04-08T20:37:05.346Z,97246.22
2023-04-08T20:39:35.398Z,97249.84
2023-04-08T20:42:06.650Z,97250.66
2023-04-08T20:44:35.506Z,97255.94
2023-04-08T20:47:04.317Z,97242.97
2023-04-08T20:49:35.050Z,97247.22
2023-04-08T20:52:05.928Z,97250.63
2023-04-08T20:54:34.715Z,97244.75
2023-04-08T20:57:05.401Z,97240.69
2023-04-08T20:59:35.487Z,97250.56
2023-04-08T21:02:04.295Z,97246.97
2023-04-08T21:04:33.391Z,97242.50
2023-04-08T21:07:02.343Z,97242.91
2023-04-08T21:09:32.848Z,97242.06
2023-04-08T21:12:01.763Z,97242.06
2023-04-08T21:14:32.231Z,97238.44
2023-04-08T21:17:00.987Z,97237.25
2023-04-08T21:19:29.682Z,97246.97
2023-04-08T21:21:58.378Z,97244.66
2023-04-08T21:24:27.188Z,97235.56
2023-04-08T21:26:59.444Z,97229.84
2023-04-08T21:29:27.825Z,97236.97
2023-04-08T21:31:56.776Z,97233.69
2023-04-08T21:34:25.809Z,97232.69
2023-04-08T21:36:54.735Z,97231.06
2023-04-08T21:39:24.325Z,97237.28
2023-04-08T21:41:53.048Z,97234.03
2023-04-08T21:44:23.709Z,97235.63
2023-04-08T21:46:52.139Z,97230.50
2023-04-08T21:49:20.595Z,97235.31
2023-04-08T21:51:53.370Z,97231.75
2023-04-08T21:54:31.255Z,97229.31
2023-04-08T21:57:01.456Z,97232.31
2023-04-08T21:59:32.013Z,97236.13
2023-04-08T22:02:08.284Z,97236.25
2023-04-08T22:04:38.886Z,97239.59
2023-04-08T22:07:07.587Z,97233.66
2023-04-08T22:09:36.544Z,97233.94
2023-04-08T22:12:05.587Z,97238.97
2023-04-08T22:14:35.938Z,97232.94
2023-04-08T22:17:05.337Z,97233.31
2023-04-08T22:19:34.100Z,97241.31
2023-04-08T22:22:02.918Z,97239.06
2023-04-08T22:24:31.377Z,97236.75
2023-04-08T22:26:59.931Z,97232.50
2023-04-08T22:29:28.270Z,97237.13
2023-04-08T22:31:57.999Z,97239.25
2023-04-08T22:34:26.648Z,97236.38
2023-04-08T22:36:55.386Z,97229.59
2023-04-08T22:39:26.265Z,97232.59
2023-04-08T22:41:55.184Z,97236.59
2023-04-08T22:44:23.667Z,97240.97
2023-04-08T22:46:52.484Z,97239.00
2023-04-08T22:49:22.468Z,97238.44
2023-04-08T22:51:51.557Z,97233.31
2023-04-08T22:54:20.849Z,97235.69
2023-04-08T22:56:53.807Z,97228.41
2023-04-08T22:59:26.817Z,97235.94
2023-04-08T23:01:56.563Z,97231.84
2023-04-08T23:04:27.080Z,97233.22
2023-04-08T23:06:58.251Z,97230.97
2023-04-08T23:09:28.560Z,97230.97
2023-04-08T23:12:21.674Z,97229.25
2023-04-08T23:14:50.058Z,97234.88
2023-04-08T23:17:18.953Z,97228.88
2023-04-08T23:19:49.190Z,97227.88
2023-04-08T23:22:20.277Z,97232.38
2023-04-08T23:24:48.769Z,97235.19
2023-04-08T23:27:17.344Z,97235.47
2023-04-08T23:29:46.131Z,97236.19
2023-04-08T23:32:14.597Z,97234.56
2023-04-08T23:34:43.057Z,97236.88
2023-04-08T23:37:13.385Z,97238.34
2023-04-08T23:39:42.696Z,97239.34
2023-04-08T23:42:11.736Z,97237.72
2023-04-08T23:44:40.142Z,97231.28
2023-04-08T23:47:08.979Z,97236.63
2023-04-08T23:49:37.644Z,97231.19
2023-04-08T23:52:06.979Z,97234.25
2023-04-08T23:54:37.399Z,97227.31
2023-04-08T23:57:06.118Z,97228.41
2023-04-08T23:59:36.004Z,97226.78
